sensor_id;sensor_type;location;lat;lon;timestamp;P1;durP1;ratioP1;P2;durP2;ratioP2
11016;SDS011;54687;50.800;6.772;2023-04-03T00:02:24;5.57;;;3.13;;
11016;SDS011;54687;50.800;6.772;2023-04-03T00:04:51;3.95;;;2.90;;
11016;SDS011;54687;50.800;6.772;2023-04-03T00:07:17;3.90;;;2.80;;
11016;SDS011;54687;50.800;6.772;2023-04-03T00:09:44;5.03;;;2.80;;
11016;SDS011;54687;50.800;6.772;2023-04-03T00:12:10;3.22;;;2.85;;
11016;SDS011;54687;50.800;6.772;2023-04-03T00:14:37;4.50;;;3.00;;
11016;SDS011;54687;50.800;6.772;2023-04-03T00:17:03;3.17;;;2.88;;
11016;SDS011;54687;50.800;6.772;2023-04-03T00:19:31;3.97;;;3.28;;
11016;SDS011;54687;50.800;6.772;2023-04-03T00:21:58;3.33;;;2.70;;
11016;SDS011;54687;50.800;6.772;2023-04-03T00:24:24;2.95;;;2.42;;
11016;SDS011;54687;50.800;6.772;2023-04-03T00:26:51;3.47;;;2.70;;
11016;SDS011;54687;50.800;6.772;2023-04-03T00:29:18;4.40;;;2.85;;
11016;SDS011;54687;50.800;6.772;2023-04-03T00:31:44;5.05;;;2.88;;
11016;SDS011;54687;50.800;6.772;2023-04-03T00:34:11;3.25;;;2.40;;
11016;SDS011;54687;50.800;6.772;2023-04-03T00:36:39;3.45;;;2.83;;
11016;SDS011;54687;50.800;6.772;2023-04-03T00:39:05;3.35;;;2.63;;
11016;SDS011;54687;50.800;6.772;2023-04-03T00:41:32;3.65;;;2.75;;
11016;SDS011;54687;50.800;6.772;2023-04-03T00:43:58;3.88;;;2.60;;
11016;SDS011;54687;50.800;6.772;2023-04-03T00:46:25;2.65;;;2.45;;
11016;SDS011;54687;50.800;6.772;2023-04-03T00:48:52;4.32;;;2.70;;
11016;SDS011;54687;50.800;6.772;2023-04-03T00:51:20;2.88;;;2.55;;
11016;SDS011;54687;50.800;6.772;2023-04-03T00:53:52;5.53;;;2.70;;
11016;SDS011;54687;50.800;6.772;2023-04-03T00:56:25;2.78;;;2.35;;
11016;SDS011;54687;50.800;6.772;2023-04-03T00:58:54;5.35;;;2.63;;
11016;SDS011;54687;50.800;6.772;2023-04-03T01:01:25;5.65;;;2.40;;
11016;SDS011;54687;50.800;6.772;2023-04-03T01:03:53;4.07;;;2.70;;
11016;SDS011;54687;50.800;6.772;2023-04-03T01:06:21;3.83;;;2.72;;
11016;SDS011;54687;50.800;6.772;2023-04-03T01:08:53;4.05;;;2.58;;
11016;SDS011;54687;50.800;6.772;2023-04-03T01:11:21;3.53;;;2.13;;
11016;SDS011;54687;50.800;6.772;2023-04-03T01:13:48;2.95;;;2.70;;
11016;SDS011;54687;50.800;6.772;2023-04-03T01:16:15;4.47;;;2.28;;
11016;SDS011;54687;50.800;6.772;2023-04-03T01:18:41;4.28;;;2.47;;
11016;SDS011;54687;50.800;6.772;2023-04-03T01:24:14;3.13;;;2.35;;
11016;SDS011;54687;50.800;6.772;2023-04-03T01:26:49;2.88;;;2.67;;
11016;SDS011;54687;50.800;6.772;2023-04-03T01:29:16;4.65;;;3.17;;
11016;SDS011;54687;50.800;6.772;2023-04-03T01:31:49;3.30;;;3.00;;
11016;SDS011;54687;50.800;6.772;2023-04-03T01:34:16;3.60;;;2.90;;
11016;SDS011;54687;50.800;6.772;2023-04-03T01:36:43;3.65;;;3.30;;
11016;SDS011;54687;50.800;6.772;2023-04-03T01:39:10;4.63;;;2.97;;
11016;SDS011;54687;50.800;6.772;2023-04-03T01:41:37;2.97;;;2.47;;
11016;SDS011;54687;50.800;6.772;2023-04-03T01:44:03;3.95;;;2.92;;
11016;SDS011;54687;50.800;6.772;2023-04-03T01:46:30;3.45;;;2.60;;
11016;SDS011;54687;50.800;6.772;2023-04-03T01:48:59;2.90;;;2.55;;
11016;SDS011;54687;50.800;6.772;2023-04-03T01:51:25;5.25;;;3.00;;
11016;SDS011;54687;50.800;6.772;2023-04-03T01:53:52;6.03;;;2.90;;
11016;SDS011;54687;50.800;6.772;2023-04-03T01:56:19;3.55;;;2.85;;
11016;SDS011;54687;50.800;6.772;2023-04-03T01:58:46;3.63;;;3.08;;
11016;SDS011;54687;50.800;6.772;2023-04-03T02:01:12;5.05;;;2.85;;
11016;SDS011;54687;50.800;6.772;2023-04-03T02:03:40;4.75;;;3.25;;
11016;SDS011;54687;50.800;6.772;2023-04-03T02:06:08;4.00;;;3.07;;
11016;SDS011;54687;50.800;6.772;2023-04-03T02:08:34;3.40;;;3.00;;
11016;SDS011;54687;50.800;6.772;2023-04-03T02:11:01;3.50;;;3.10;;
11016;SDS011;54687;50.800;6.772;2023-04-03T02:13:28;5.68;;;3.33;;
11016;SDS011;54687;50.800;6.772;2023-04-03T02:15:54;3.58;;;2.85;;
11016;SDS011;54687;50.800;6.772;2023-04-03T02:18:21;3.35;;;3.05;;
11016;SDS011;54687;50.800;6.772;2023-04-03T02:20:47;3.20;;;2.90;;
11016;SDS011;54687;50.800;6.772;2023-04-03T02:23:15;3.70;;;2.97;;
11016;SDS011;54687;50.800;6.772;2023-04-03T02:25:42;4.23;;;2.70;;
11016;SDS011;54687;50.800;6.772;2023-04-03T02:28:08;4.03;;;3.10;;
11016;SDS011;54687;50.800;6.772;2023-04-03T02:30:35;3.95;;;2.90;;
11016;SDS011;54687;50.800;6.772;2023-04-03T02:33:01;4.07;;;3.37;;
11016;SDS011;54687;50.800;6.772;2023-04-03T02:35:28;3.65;;;3.20;;
11016;SDS011;54687;50.800;6.772;2023-04-03T02:37:54;4.43;;;2.67;;
11016;SDS011;54687;50.800;6.772;2023-04-03T02:40:22;3.58;;;3.15;;
11016;SDS011;54687;50.800;6.772;2023-04-03T02:42:49;3.90;;;3.60;;
11016;SDS011;54687;50.800;6.772;2023-04-03T02:45:16;4.78;;;3.67;;
11016;SDS011;54687;50.800;6.772;2023-04-03T02:47:42;4.65;;;3.47;;
11016;SDS011;54687;50.800;6.772;2023-04-03T02:50:09;4.57;;;3.40;;
11016;SDS011;54687;50.800;6.772;2023-04-03T02:52:36;5.78;;;3.50;;
11016;SDS011;54687;50.800;6.772;2023-04-03T02:55:02;4.30;;;3.10;;
11016;SDS011;54687;50.800;6.772;2023-04-03T02:57:31;7.07;;;3.45;;
11016;SDS011;54687;50.800;6.772;2023-04-03T02:59:58;3.67;;;2.97;;
11016;SDS011;54687;50.800;6.772;2023-04-03T03:02:24;3.53;;;3.22;;
11016;SDS011;54687;50.800;6.772;2023-04-03T03:04:51;5.50;;;3.67;;
11016;SDS011;54687;50.800;6.772;2023-04-03T03:07:17;4.47;;;3.57;;
11016;SDS011;54687;50.800;6.772;2023-04-03T03:09:44;4.93;;;3.67;;
11016;SDS011;54687;50.800;6.772;2023-04-03T03:12:11;5.47;;;3.60;;
11016;SDS011;54687;50.800;6.772;2023-04-03T03:14:38;5.47;;;3.37;;
11016;SDS011;54687;50.800;6.772;2023-04-03T03:17:05;4.23;;;3.43;;
11016;SDS011;54687;50.800;6.772;2023-04-03T03:19:32;4.37;;;3.47;;
11016;SDS011;54687;50.800;6.772;2023-04-03T03:21:58;4.07;;;3.67;;
11016;SDS011;54687;50.800;6.772;2023-04-03T03:24:25;4.47;;;4.03;;
11016;SDS011;54687;50.800;6.772;2023-04-03T03:26:51;4.93;;;3.93;;
11016;SDS011;54687;50.800;6.772;2023-04-03T03:29:18;4.37;;;3.90;;
11016;SDS011;54687;50.800;6.772;2023-04-03T03:31:46;6.03;;;4.57;;
11016;SDS011;54687;50.800;6.772;2023-04-03T03:34:12;4.83;;;3.97;;
11016;SDS011;54687;50.800;6.772;2023-04-03T03:36:39;6.60;;;3.97;;
11016;SDS011;54687;50.800;6.772;2023-04-03T03:39:06;8.00;;;4.10;;
11016;SDS011;54687;50.800;6.772;2023-04-03T03:41:32;5.00;;;4.27;;
11016;SDS011;54687;50.800;6.772;2023-04-03T03:43:59;4.83;;;4.37;;
11016;SDS011;54687;50.800;6.772;2023-04-03T03:46:26;5.87;;;4.03;;
11016;SDS011;54687;50.800;6.772;2023-04-03T03:48:54;5.60;;;4.20;;
11016;SDS011;54687;50.800;6.772;2023-04-03T03:51:20;6.43;;;4.80;;
11016;SDS011;54687;50.800;6.772;2023-04-03T03:53:47;6.37;;;3.97;;
11016;SDS011;54687;50.800;6.772;2023-04-03T03:56:13;6.17;;;4.67;;
11016;SDS011;54687;50.800;6.772;2023-04-03T03:58:40;4.90;;;4.40;;
11016;SDS011;54687;50.800;6.772;2023-04-03T04:01:07;4.77;;;4.30;;
11016;SDS011;54687;50.800;6.772;2023-04-03T04:03:33;5.63;;;4.13;;
11016;SDS011;54687;50.800;6.772;2023-04-03T04:06:01;5.47;;;4.10;;
11016;SDS011;54687;50.800;6.772;2023-04-03T04:08:28;7.13;;;4.30;;
11016;SDS011;54687;50.800;6.772;2023-04-03T04:10:55;5.10;;;4.60;;
11016;SDS011;54687;50.800;6.772;2023-04-03T04:13:21;5.00;;;4.50;;
11016;SDS011;54687;50.800;6.772;2023-04-03T04:15:48;5.03;;;4.53;;
11016;SDS011;54687;50.800;6.772;2023-04-03T04:18:14;5.53;;;4.33;;
11016;SDS011;54687;50.800;6.772;2023-04-03T04:20:41;5.03;;;4.20;;
11016;SDS011;54687;50.800;6.772;2023-04-03T04:23:09;6.17;;;5.03;;
11016;SDS011;54687;50.800;6.772;2023-04-03T04:25:35;5.57;;;5.07;;
11016;SDS011;54687;50.800;6.772;2023-04-03T04:28:02;6.47;;;5.37;;
11016;SDS011;54687;50.800;6.772;2023-04-03T04:30:28;5.77;;;5.27;;
11016;SDS011;54687;50.800;6.772;2023-04-03T04:32:55;6.30;;;5.23;;
11016;SDS011;54687;50.800;6.772;2023-04-03T04:35:21;6.23;;;5.70;;
11016;SDS011;54687;50.800;6.772;2023-04-03T04:37:49;7.00;;;5.00;;
11016;SDS011;54687;50.800;6.772;2023-04-03T04:40:17;7.13;;;5.53;;
11016;SDS011;54687;50.800;6.772;2023-04-03T04:42:43;6.60;;;5.30;;
11016;SDS011;54687;50.800;6.772;2023-04-03T04:45:10;5.53;;;5.00;;
11016;SDS011;54687;50.800;6.772;2023-04-03T04:47:37;5.73;;;5.23;;
11016;SDS011;54687;50.800;6.772;2023-04-03T04:50:03;6.33;;;5.40;;
11016;SDS011;54687;50.800;6.772;2023-04-03T04:52:31;5.80;;;5.30;;
11016;SDS011;54687;50.800;6.772;2023-04-03T04:54:58;5.87;;;5.23;;
11016;SDS011;54687;50.800;6.772;2023-04-03T04:57:26;5.53;;;4.73;;
11016;SDS011;54687;50.800;6.772;2023-04-03T04:59:52;5.77;;;4.70;;
11016;SDS011;54687;50.800;6.772;2023-04-03T05:02:19;5.40;;;4.90;;
11016;SDS011;54687;50.800;6.772;2023-04-03T05:04:45;5.20;;;4.47;;
11016;SDS011;54687;50.800;6.772;2023-04-03T05:07:12;6.87;;;4.57;;
11016;SDS011;54687;50.800;6.772;2023-04-03T05:09:39;5.97;;;5.20;;
11016;SDS011;54687;50.800;6.772;2023-04-03T05:12:07;5.67;;;4.77;;
11016;SDS011;54687;50.800;6.772;2023-04-03T05:14:35;5.20;;;4.60;;
11016;SDS011;54687;50.800;6.772;2023-04-03T05:17:01;6.07;;;4.70;;
11016;SDS011;54687;50.800;6.772;2023-04-03T05:19:28;7.13;;;4.80;;
11016;SDS011;54687;50.800;6.772;2023-04-03T05:21:55;5.33;;;4.63;;
11016;SDS011;54687;50.800;6.772;2023-04-03T05:24:21;6.33;;;5.10;;
11016;SDS011;54687;50.800;6.772;2023-04-03T05:26:48;5.10;;;4.60;;
11016;SDS011;54687;50.800;6.772;2023-04-03T05:29:15;5.43;;;4.60;;
11016;SDS011;54687;50.800;6.772;2023-04-03T05:31:43;11.83;;;6.30;;
11016;SDS011;54687;50.800;6.772;2023-04-03T05:34:09;5.40;;;4.43;;
11016;SDS011;54687;50.800;6.772;2023-04-03T05:36:37;5.53;;;4.30;;
11016;SDS011;54687;50.800;6.772;2023-04-03T05:39:03;5.57;;;4.10;;
11016;SDS011;54687;50.800;6.772;2023-04-03T05:41:30;5.97;;;4.20;;
11016;SDS011;54687;50.800;6.772;2023-04-03T05:43:57;5.43;;;3.87;;
11016;SDS011;54687;50.800;6.772;2023-04-03T05:46:24;7.10;;;4.00;;
11016;SDS011;54687;50.800;6.772;2023-04-03T05:48:52;4.30;;;3.80;;
11016;SDS011;54687;50.800;6.772;2023-04-03T05:51:19;4.83;;;3.97;;
11016;SDS011;54687;50.800;6.772;2023-04-03T05:53:48;6.57;;;4.50;;
11016;SDS011;54687;50.800;6.772;2023-04-03T05:56:18;5.40;;;3.93;;
11016;SDS011;54687;50.800;6.772;2023-04-03T05:58:45;6.40;;;3.80;;
11016;SDS011;54687;50.800;6.772;2023-04-03T06:01:11;5.13;;;4.53;;
11016;SDS011;54687;50.800;6.772;2023-04-03T06:03:38;4.63;;;4.10;;
11016;SDS011;54687;50.800;6.772;2023-04-03T06:06:07;5.83;;;4.00;;
11016;SDS011;54687;50.800;6.772;2023-04-03T06:08:33;7.63;;;4.23;;
11016;SDS011;54687;50.800;6.772;2023-04-03T06:11:00;5.13;;;4.00;;
11016;SDS011;54687;50.800;6.772;2023-04-03T06:13:28;5.17;;;3.83;;
11016;SDS011;54687;50.800;6.772;2023-04-03T06:15:54;5.47;;;4.13;;
11016;SDS011;54687;50.800;6.772;2023-04-03T06:18:21;5.10;;;4.00;;
11016;SDS011;54687;50.800;6.772;2023-04-03T06:20:48;6.00;;;4.63;;
11016;SDS011;54687;50.800;6.772;2023-04-03T06:23:16;5.47;;;4.00;;
11016;SDS011;54687;50.800;6.772;2023-04-03T06:25:43;7.63;;;3.60;;
11016;SDS011;54687;50.800;6.772;2023-04-03T06:28:09;4.03;;;3.63;;
11016;SDS011;54687;50.800;6.772;2023-04-03T06:30:36;4.67;;;3.67;;
11016;SDS011;54687;50.800;6.772;2023-04-03T06:33:03;7.30;;;4.10;;
11016;SDS011;54687;50.800;6.772;2023-04-03T06:35:29;4.90;;;3.30;;
11016;SDS011;54687;50.800;6.772;2023-04-03T06:37:56;4.73;;;3.30;;
11016;SDS011;54687;50.800;6.772;2023-04-03T06:40:25;6.27;;;4.23;;
11016;SDS011;54687;50.800;6.772;2023-04-03T06:42:52;5.77;;;3.10;;
11016;SDS011;54687;50.800;6.772;2023-04-03T06:45:19;4.43;;;3.15;;
11016;SDS011;54687;50.800;6.772;2023-04-03T06:47:46;6.10;;;2.83;;
11016;SDS011;54687;50.800;6.772;2023-04-03T06:50:13;5.73;;;3.20;;
11016;SDS011;54687;50.800;6.772;2023-04-03T06:52:40;5.17;;;3.03;;
11016;SDS011;54687;50.800;6.772;2023-04-03T06:55:07;5.07;;;3.27;;
11016;SDS011;54687;50.800;6.772;2023-04-03T06:57:36;5.37;;;3.17;;
11016;SDS011;54687;50.800;6.772;2023-04-03T07:00:03;5.10;;;3.37;;
11016;SDS011;54687;50.800;6.772;2023-04-03T07:02:32;7.13;;;3.33;;
11016;SDS011;54687;50.800;6.772;2023-04-03T07:04:59;6.00;;;3.25;;
11016;SDS011;54687;50.800;6.772;2023-04-03T07:07:25;6.03;;;3.50;;
11016;SDS011;54687;50.800;6.772;2023-04-03T07:09:53;5.00;;;3.20;;
11016;SDS011;54687;50.800;6.772;2023-04-03T07:12:19;4.90;;;3.37;;
11016;SDS011;54687;50.800;6.772;2023-04-03T07:14:47;5.63;;;3.38;;
11016;SDS011;54687;50.800;6.772;2023-04-03T07:17:14;4.63;;;3.40;;
11016;SDS011;54687;50.800;6.772;2023-04-03T07:19:41;4.67;;;3.83;;
11016;SDS011;54687;50.800;6.772;2023-04-03T07:22:07;3.55;;;2.90;;
11016;SDS011;54687;50.800;6.772;2023-04-03T07:24:36;4.68;;;3.13;;
11016;SDS011;54687;50.800;6.772;2023-04-03T07:27:02;3.77;;;2.87;;
11016;SDS011;54687;50.800;6.772;2023-04-03T07:29:30;3.60;;;2.90;;
11016;SDS011;54687;50.800;6.772;2023-04-03T07:31:59;3.77;;;2.87;;
11016;SDS011;54687;50.800;6.772;2023-04-03T07:34:25;4.38;;;2.70;;
11016;SDS011;54687;50.800;6.772;2023-04-03T07:36:52;6.05;;;2.80;;
11016;SDS011;54687;50.800;6.772;2023-04-03T07:39:19;7.05;;;3.95;;
11016;SDS011;54687;50.800;6.772;2023-04-03T07:41:45;4.63;;;3.13;;
11016;SDS011;54687;50.800;6.772;2023-04-03T07:44:12;3.55;;;3.00;;
11016;SDS011;54687;50.800;6.772;2023-04-03T07:46:38;6.20;;;2.85;;
11016;SDS011;54687;50.800;6.772;2023-04-03T07:49:06;4.15;;;3.00;;
11016;SDS011;54687;50.800;6.772;2023-04-03T07:51:33;6.05;;;3.45;;
11016;SDS011;54687;50.800;6.772;2023-04-03T07:54:00;6.63;;;3.67;;
11016;SDS011;54687;50.800;6.772;2023-04-03T07:56:27;4.30;;;2.97;;
11016;SDS011;54687;50.800;6.772;2023-04-03T07:58:54;5.80;;;2.75;;
11016;SDS011;54687;50.800;6.772;2023-04-03T08:01:21;5.07;;;2.95;;
11016;SDS011;54687;50.800;6.772;2023-04-03T08:03:50;4.30;;;2.95;;
11016;SDS011;54687;50.800;6.772;2023-04-03T08:06:17;5.05;;;3.05;;
11016;SDS011;54687;50.800;6.772;2023-04-03T08:08:44;5.68;;;3.35;;
11016;SDS011;54687;50.800;6.772;2023-04-03T08:11:11;5.63;;;3.08;;
11016;SDS011;54687;50.800;6.772;2023-04-03T08:13:38;5.28;;;2.80;;
11016;SDS011;54687;50.800;6.772;2023-04-03T08:16:10;5.25;;;3.03;;
11016;SDS011;54687;50.800;6.772;2023-04-03T08:18:38;4.45;;;3.08;;
11016;SDS011;54687;50.800;6.772;2023-04-03T08:21:06;4.65;;;2.90;;
11016;SDS011;54687;50.800;6.772;2023-04-03T08:23:34;4.28;;;3.13;;
11016;SDS011;54687;50.800;6.772;2023-04-03T08:26:05;4.35;;;2.95;;
11016;SDS011;54687;50.800;6.772;2023-04-03T08:28:33;5.47;;;2.70;;
11016;SDS011;54687;50.800;6.772;2023-04-03T08:31:02;6.63;;;3.47;;
11016;SDS011;54687;50.800;6.772;2023-04-03T08:33:30;5.50;;;2.90;;
11016;SDS011;54687;50.800;6.772;2023-04-03T08:35:57;4.00;;;2.72;;
11016;SDS011;54687;50.800;6.772;2023-04-03T08:38:24;5.47;;;3.00;;
11016;SDS011;54687;50.800;6.772;2023-04-03T08:41:00;4.35;;;2.60;;
11016;SDS011;54687;50.800;6.772;2023-04-03T08:43:34;5.80;;;2.97;;
11016;SDS011;54687;50.800;6.772;2023-04-03T08:46:08;5.63;;;3.13;;
11016;SDS011;54687;50.800;6.772;2023-04-03T08:48:41;6.65;;;2.85;;
11016;SDS011;54687;50.800;6.772;2023-04-03T08:51:10;8.40;;;3.35;;
11016;SDS011;54687;50.800;6.772;2023-04-03T08:53:40;5.35;;;3.08;;
11016;SDS011;54687;50.800;6.772;2023-04-03T08:56:13;7.07;;;4.07;;
11016;SDS011;54687;50.800;6.772;2023-04-03T08:58:45;4.63;;;2.80;;
11016;SDS011;54687;50.800;6.772;2023-04-03T09:01:17;6.82;;;2.97;;
11016;SDS011;54687;50.800;6.772;2023-04-03T09:03:46;4.80;;;2.90;;
11016;SDS011;54687;50.800;6.772;2023-04-03T09:06:13;6.13;;;3.10;;
11016;SDS011;54687;50.800;6.772;2023-04-03T09:08:43;4.38;;;2.58;;
11016;SDS011;54687;50.800;6.772;2023-04-03T09:11:18;5.30;;;3.10;;
11016;SDS011;54687;50.800;6.772;2023-04-03T09:13:54;5.82;;;2.90;;
11016;SDS011;54687;50.800;6.772;2023-04-03T09:16:27;7.05;;;3.00;;
11016;SDS011;54687;50.800;6.772;2023-04-03T09:19:18;4.75;;;2.80;;
11016;SDS011;54687;50.800;6.772;2023-04-03T09:21:57;4.20;;;2.50;;
11016;SDS011;54687;50.800;6.772;2023-04-03T09:24:27;4.32;;;2.65;;
11016;SDS011;54687;50.800;6.772;2023-04-03T09:26:59;4.38;;;2.55;;
11016;SDS011;54687;50.800;6.772;2023-04-03T09:29:29;4.93;;;2.55;;
11016;SDS011;54687;50.800;6.772;2023-04-03T09:31:56;2.80;;;2.00;;
11016;SDS011;54687;50.800;6.772;2023-04-03T09:34:28;5.03;;;2.78;;
11016;SDS011;54687;50.800;6.772;2023-04-03T09:36:58;4.25;;;3.05;;
11016;SDS011;54687;50.800;6.772;2023-04-03T09:39:48;3.88;;;2.35;;
11016;SDS011;54687;50.800;6.772;2023-04-03T09:42:18;4.03;;;2.60;;
11016;SDS011;54687;50.800;6.772;2023-04-03T09:44:52;4.35;;;2.53;;
11016;SDS011;54687;50.800;6.772;2023-04-03T09:47:23;5.13;;;2.65;;
11016;SDS011;54687;50.800;6.772;2023-04-03T09:49:52;4.75;;;2.55;;
11016;SDS011;54687;50.800;6.772;2023-04-03T09:52:45;4.07;;;2.47;;
11016;SDS011;54687;50.800;6.772;2023-04-03T09:55:13;6.07;;;3.20;;
11016;SDS011;54687;50.800;6.772;2023-04-03T09:57:43;4.20;;;3.17;;
11016;SDS011;54687;50.800;6.772;2023-04-03T10:00:19;4.68;;;2.47;;
11016;SDS011;54687;50.800;6.772;2023-04-03T10:02:51;5.57;;;2.70;;
11016;SDS011;54687;50.800;6.772;2023-04-03T10:05:25;3.53;;;2.42;;
11016;SDS011;54687;50.800;6.772;2023-04-03T10:08:07;6.95;;;2.90;;
11016;SDS011;54687;50.800;6.772;2023-04-03T10:10:46;5.75;;;2.85;;
11016;SDS011;54687;50.800;6.772;2023-04-03T10:13:17;5.00;;;2.60;;
11016;SDS011;54687;50.800;6.772;2023-04-03T10:15:48;3.78;;;2.50;;
11016;SDS011;54687;50.800;6.772;2023-04-03T10:18:27;2.30;;;2.10;;
11016;SDS011;54687;50.800;6.772;2023-04-03T10:20:59;3.15;;;2.58;;
11016;SDS011;54687;50.800;6.772;2023-04-03T10:23:36;3.00;;;2.22;;
11016;SDS011;54687;50.800;6.772;2023-04-03T10:26:12;2.78;;;2.22;;
11016;SDS011;54687;50.800;6.772;2023-04-03T10:28:52;3.90;;;2.50;;
11016;SDS011;54687;50.800;6.772;2023-04-03T10:31:25;4.00;;;2.20;;
11016;SDS011;54687;50.800;6.772;2023-04-03T10:33:59;3.92;;;2.10;;
11016;SDS011;54687;50.800;6.772;2023-04-03T10:36:36;2.83;;;2.45;;
11016;SDS011;54687;50.800;6.772;2023-04-03T10:39:17;6.13;;;2.75;;
11016;SDS011;54687;50.800;6.772;2023-04-03T10:41:56;4.80;;;2.42;;
11016;SDS011;54687;50.800;6.772;2023-04-03T10:44:34;3.25;;;2.05;;
11016;SDS011;54687;50.800;6.772;2023-04-03T10:47:10;2.13;;;1.92;;
11016;SDS011;54687;50.800;6.772;2023-04-03T10:49:43;4.90;;;2.30;;
11016;SDS011;54687;50.800;6.772;2023-04-03T10:52:20;2.72;;;2.05;;
11016;SDS011;54687;50.800;6.772;2023-04-03T10:54:56;2.72;;;1.92;;
11016;SDS011;54687;50.800;6.772;2023-04-03T10:57:30;3.53;;;1.80;;
11016;SDS011;54687;50.800;6.772;2023-04-03T10:59:59;3.25;;;1.92;;
11016;SDS011;54687;50.800;6.772;2023-04-03T11:02:30;2.78;;;2.10;;
11016;SDS011;54687;50.800;6.772;2023-04-03T11:04:59;4.55;;;2.03;;
11016;SDS011;54687;50.800;6.772;2023-04-03T11:07:29;3.88;;;2.05;;
11016;SDS011;54687;50.800;6.772;2023-04-03T11:10:04;2.72;;;2.00;;
11016;SDS011;54687;50.800;6.772;2023-04-03T11:12:41;5.25;;;1.98;;
11016;SDS011;54687;50.800;6.772;2023-04-03T11:15:13;4.45;;;2.28;;
11016;SDS011;54687;50.800;6.772;2023-04-03T11:17:44;2.63;;;2.15;;
11016;SDS011;54687;50.800;6.772;2023-04-03T11:20:17;3.75;;;2.20;;
11016;SDS011;54687;50.800;6.772;2023-04-03T11:22:47;3.55;;;2.40;;
11016;SDS011;54687;50.800;6.772;2023-04-03T11:25:19;6.13;;;2.50;;
11016;SDS011;54687;50.800;6.772;2023-04-03T11:27:49;3.08;;;2.55;;
11016;SDS011;54687;50.800;6.772;2023-04-03T11:30:22;5.50;;;2.33;;
11016;SDS011;54687;50.800;6.772;2023-04-03T11:32:58;3.47;;;2.35;;
11016;SDS011;54687;50.800;6.772;2023-04-03T11:35:35;3.70;;;2.20;;
11016;SDS011;54687;50.800;6.772;2023-04-03T11:38:04;5.68;;;2.30;;
11016;SDS011;54687;50.800;6.772;2023-04-03T11:40:32;5.32;;;2.47;;
11016;SDS011;54687;50.800;6.772;2023-04-03T11:43:05;4.00;;;2.45;;
11016;SDS011;54687;50.800;6.772;2023-04-03T11:45:37;4.75;;;2.00;;
11016;SDS011;54687;50.800;6.772;2023-04-03T12:00:49;2.80;;;2.22;;
11016;SDS011;54687;50.800;6.772;2023-04-03T12:03:34;3.33;;;2.38;;
11016;SDS011;54687;50.800;6.772;2023-04-03T12:06:41;4.60;;;3.33;;
11016;SDS011;54687;50.800;6.772;2023-04-03T12:12:42;2.78;;;2.33;;
11016;SDS011;54687;50.800;6.772;2023-04-03T12:15:24;2.55;;;1.80;;
11016;SDS011;54687;50.800;6.772;2023-04-03T12:21:24;2.63;;;2.38;;
11016;SDS011;54687;50.800;6.772;2023-04-03T12:24:31;2.83;;;2.20;;
11016;SDS011;54687;50.800;6.772;2023-04-03T12:27:03;2.40;;;2.20;;
11016;SDS011;54687;50.800;6.772;2023-04-03T12:29:37;2.25;;;1.75;;
11016;SDS011;54687;50.800;6.772;2023-04-03T12:32:11;2.85;;;2.05;;
11016;SDS011;54687;50.800;6.772;2023-04-03T12:34:55;2.72;;;2.08;;
11016;SDS011;54687;50.800;6.772;2023-04-03T12:37:35;3.58;;;1.70;;
11016;SDS011;54687;50.800;6.772;2023-04-03T12:40:10;2.28;;;1.83;;
11016;SDS011;54687;50.800;6.772;2023-04-03T12:42:56;2.20;;;1.60;;
11016;SDS011;54687;50.800;6.772;2023-04-03T12:45:44;2.67;;;1.60;;
11016;SDS011;54687;50.800;6.772;2023-04-03T12:48:16;2.83;;;1.65;;
11016;SDS011;54687;50.800;6.772;2023-04-03T12:50:46;2.63;;;1.73;;
11016;SDS011;54687;50.800;6.772;2023-04-03T12:53:13;2.55;;;1.48;;
11016;SDS011;54687;50.800;6.772;2023-04-03T12:55:44;4.55;;;1.77;;
11016;SDS011;54687;50.800;6.772;2023-04-03T12:58:15;3.65;;;1.70;;
11016;SDS011;54687;50.800;6.772;2023-04-03T13:00:43;2.25;;;1.67;;
11016;SDS011;54687;50.800;6.772;2023-04-03T13:03:19;2.80;;;1.58;;
11016;SDS011;54687;50.800;6.772;2023-04-03T13:05:51;3.50;;;1.70;;
11016;SDS011;54687;50.800;6.772;2023-04-03T13:08:18;2.45;;;1.30;;
11016;SDS011;54687;50.800;6.772;2023-04-03T13:10:48;1.58;;;1.48;;
11016;SDS011;54687;50.800;6.772;2023-04-03T13:13:19;4.13;;;1.60;;
11016;SDS011;54687;50.800;6.772;2023-04-03T13:15:46;2.10;;;1.52;;
11016;SDS011;54687;50.800;6.772;2023-04-03T13:18:25;2.97;;;1.70;;
11016;SDS011;54687;50.800;6.772;2023-04-03T13:20:58;4.25;;;1.67;;
11016;SDS011;54687;50.800;6.772;2023-04-03T13:23:27;2.67;;;1.70;;
11016;SDS011;54687;50.800;6.772;2023-04-03T13:25:56;6.15;;;1.80;;
11016;SDS011;54687;50.800;6.772;2023-04-03T13:28:27;2.40;;;1.45;;
11016;SDS011;54687;50.800;6.772;2023-04-03T13:30:56;1.45;;;1.35;;
11016;SDS011;54687;50.800;6.772;2023-04-03T13:33:28;4.35;;;1.90;;
11016;SDS011;54687;50.800;6.772;2023-04-03T13:36:00;4.68;;;1.90;;
11016;SDS011;54687;50.800;6.772;2023-04-03T13:38:31;2.30;;;1.30;;
11016;SDS011;54687;50.800;6.772;2023-04-03T13:41:00;2.38;;;1.40;;
11016;SDS011;54687;50.800;6.772;2023-04-03T13:43:30;3.08;;;1.80;;
11016;SDS011;54687;50.800;6.772;2023-04-03T13:46:03;1.58;;;1.35;;
11016;SDS011;54687;50.800;6.772;2023-04-03T13:48:47;1.58;;;1.48;;
11016;SDS011;54687;50.800;6.772;2023-04-03T13:51:23;2.35;;;1.60;;
11016;SDS011;54687;50.800;6.772;2023-04-03T13:53:52;2.22;;;1.85;;
11016;SDS011;54687;50.800;6.772;2023-04-03T13:56:27;3.30;;;1.98;;
11016;SDS011;54687;50.800;6.772;2023-04-03T13:59:01;1.58;;;1.48;;
11016;SDS011;54687;50.800;6.772;2023-04-03T14:01:33;3.35;;;1.75;;
11016;SDS011;54687;50.800;6.772;2023-04-03T14:04:16;1.63;;;1.48;;
11016;SDS011;54687;50.800;6.772;2023-04-03T14:06:46;2.13;;;1.33;;
11016;SDS011;54687;50.800;6.772;2023-04-03T14:09:14;1.83;;;1.67;;
11016;SDS011;54687;50.800;6.772;2023-04-03T14:11:42;4.10;;;1.70;;
11016;SDS011;54687;50.800;6.772;2023-04-03T14:14:12;2.03;;;1.67;;
11016;SDS011;54687;50.800;6.772;2023-04-03T14:16:42;3.35;;;1.77;;
11016;SDS011;54687;50.800;6.772;2023-04-03T14:19:16;4.00;;;1.65;;
11016;SDS011;54687;50.800;6.772;2023-04-03T14:21:46;3.83;;;1.92;;
11016;SDS011;54687;50.800;6.772;2023-04-03T14:24:13;3.33;;;1.80;;
11016;SDS011;54687;50.800;6.772;2023-04-03T14:26:43;1.80;;;1.70;;
11016;SDS011;54687;50.800;6.772;2023-04-03T14:29:11;3.15;;;2.05;;
11016;SDS011;54687;50.800;6.772;2023-04-03T14:31:39;3.25;;;2.00;;
11016;SDS011;54687;50.800;6.772;2023-04-03T14:34:06;4.15;;;1.95;;
11016;SDS011;54687;50.800;6.772;2023-04-03T14:36:34;3.20;;;1.98;;
11016;SDS011;54687;50.800;6.772;2023-04-03T14:39:03;3.17;;;1.58;;
11016;SDS011;54687;50.800;6.772;2023-04-03T14:41:30;2.60;;;1.75;;
11016;SDS011;54687;50.800;6.772;2023-04-03T14:43:57;2.85;;;1.48;;
11016;SDS011;54687;50.800;6.772;2023-04-03T14:46:28;2.17;;;1.67;;
11016;SDS011;54687;50.800;6.772;2023-04-03T14:48:56;3.40;;;1.80;;
11016;SDS011;54687;50.800;6.772;2023-04-03T14:51:23;3.72;;;2.17;;
11016;SDS011;54687;50.800;6.772;2023-04-03T14:53:51;4.13;;;2.00;;
11016;SDS011;54687;50.800;6.772;2023-04-03T14:56:21;2.50;;;1.85;;
11016;SDS011;54687;50.800;6.772;2023-04-03T14:58:55;2.30;;;1.98;;
11016;SDS011;54687;50.800;6.772;2023-04-03T15:01:23;3.15;;;2.00;;
11016;SDS011;54687;50.800;6.772;2023-04-03T15:03:50;2.72;;;1.80;;
11016;SDS011;54687;50.800;6.772;2023-04-03T15:06:17;2.35;;;1.80;;
11016;SDS011;54687;50.800;6.772;2023-04-03T15:08:44;2.50;;;2.25;;
11016;SDS011;54687;50.800;6.772;2023-04-03T15:11:14;3.92;;;2.05;;
11016;SDS011;54687;50.800;6.772;2023-04-03T15:13:42;3.08;;;1.60;;
11016;SDS011;54687;50.800;6.772;2023-04-03T15:16:12;3.60;;;1.80;;
11016;SDS011;54687;50.800;6.772;2023-04-03T15:18:42;3.30;;;1.80;;
11016;SDS011;54687;50.800;6.772;2023-04-03T15:21:10;3.50;;;1.85;;
11016;SDS011;54687;50.800;6.772;2023-04-03T15:23:37;3.17;;;1.88;;
11016;SDS011;54687;50.800;6.772;2023-04-03T15:26:03;3.22;;;1.85;;